sensor_id;sensor_type;location;lat;lon;timestamp;temperature;humidity
20376;DHT22;10347;51.828;6.466;2023-04-25T00:01:31;8.90;99.90
20376;DHT22;10347;51.828;6.466;2023-04-25T00:04:01;8.90;99.90
20376;DHT22;10347;51.828;6.466;2023-04-25T00:06:28;9.00;99.90
20376;DHT22;10347;51.828;6.466;2023-04-25T00:08:55;9.10;99.90
20376;DHT22;10347;51.828;6.466;2023-04-25T00:11:22;9.10;99.90
20376;DHT22;10347;51.828;6.466;2023-04-25T00:13:47;9.10;99.90
20376;DHT22;10347;51.828;6.466;2023-04-25T00:16:15;9.10;99.90
20376;DHT22;10347;51.828;6.466;2023-04-25T00:18:42;9.10;99.90
20376;DHT22;10347;51.828;6.466;2023-04-25T00:21:07;9.10;99.90
20376;DHT22;10347;51.828;6.466;2023-04-25T00:23:33;9.10;99.90
20376;DHT22;10347;51.828;6.466;2023-04-25T00:26:01;9.20;99.90
20376;DHT22;10347;51.828;6.466;2023-04-25T00:28:27;9.20;99.90
20376;DHT22;10347;51.828;6.466;2023-04-25T00:30:53;9.20;99.90
20376;DHT22;10347;51.828;6.466;2023-04-25T00:33:18;9.20;99.90
20376;DHT22;10347;51.828;6.466;2023-04-25T00:35:44;9.20;99.90
20376;DHT22;10347;51.828;6.466;2023-04-25T00:38:10;9.10;99.90
20376;DHT22;10347;51.828;6.466;2023-04-25T00:40:35;9.10;99.90
20376;DHT22;10347;51.828;6.466;2023-04-25T00:43:01;9.10;99.90
20376;DHT22;10347;51.828;6.466;2023-04-25T00:45:28;9.10;99.90
20376;DHT22;10347;51.828;6.466;2023-04-25T00:47:55;9.10;99.90
20376;DHT22;10347;51.828;6.466;2023-04-25T00:50:20;9.20;99.90
20376;DHT22;10347;51.828;6.466;2023-04-25T00:52:46;9.30;99.90
20376;DHT22;10347;51.828;6.466;2023-04-25T00:55:12;9.30;99.90
20376;DHT22;10347;51.828;6.466;2023-04-25T00:57:38;9.20;99.90
20376;DHT22;10347;51.828;6.466;2023-04-25T01:00:05;9.20;99.90
20376;DHT22;10347;51.828;6.466;2023-04-25T01:02:32;9.20;99.90
20376;DHT22;10347;51.828;6.466;2023-04-25T01:04:58;9.20;99.90
20376;DHT22;10347;51.828;6.466;2023-04-25T01:07:24;9.20;99.90
20376;DHT22;10347;51.828;6.466;2023-04-25T01:09:52;9.10;99.90
20376;DHT22;10347;51.828;6.466;2023-04-25T01:12:17;9.10;99.90
20376;DHT22;10347;51.828;6.466;2023-04-25T01:14:43;9.10;99.90
20376;DHT22;10347;51.828;6.466;2023-04-25T01:17:09;9.00;99.90
20376;DHT22;10347;51.828;6.466;2023-04-25T01:19:35;9.00;99.90
20376;DHT22;10347;51.828;6.466;2023-04-25T01:22:01;9.10;99.90
20376;DHT22;10347;51.828;6.466;2023-04-25T01:24:27;9.10;99.90
20376;DHT22;10347;51.828;6.466;2023-04-25T01:26:53;9.10;99.90
20376;DHT22;10347;51.828;6.466;2023-04-25T01:29:21;9.10;99.90
20376;DHT22;10347;51.828;6.466;2023-04-25T01:31:47;9.10;99.90
20376;DHT22;10347;51.828;6.466;2023-04-25T01:34:13;9.00;99.90
20376;DHT22;10347;51.828;6.466;2023-04-25T01:36:39;9.00;99.90
20376;DHT22;10347;51.828;6.466;2023-04-25T01:39:05;9.10;99.90
20376;DHT22;10347;51.828;6.466;2023-04-25T01:41:31;9.10;99.90
20376;DHT22;10347;51.828;6.466;2023-04-25T01:43:57;9.10;99.90
20376;DHT22;10347;51.828;6.466;2023-04-25T01:46:23;9.00;99.90
20376;DHT22;10347;51.828;6.466;2023-04-25T01:48:48;9.00;99.90
20376;DHT22;10347;51.828;6.466;2023-04-25T01:51:14;9.00;99.90
20376;DHT22;10347;51.828;6.466;2023-04-25T01:53:40;8.90;99.90
20376;DHT22;10347;51.828;6.466;2023-04-25T01:56:06;8.90;99.90
20376;DHT22;10347;51.828;6.466;2023-04-25T01:58:32;8.90;99.90
20376;DHT22;10347;51.828;6.466;2023-04-25T02:00:58;8.90;99.90
20376;DHT22;10347;51.828;6.466;2023-04-25T02:03:23;8.90;99.90
20376;DHT22;10347;51.828;6.466;2023-04-25T02:05:49;8.90;99.90
20376;DHT22;10347;51.828;6.466;2023-04-25T02:08:16;8.90;99.90
20376;DHT22;10347;51.828;6.466;2023-04-25T02:10:42;8.90;99.90
20376;DHT22;10347;51.828;6.466;2023-04-25T02:13:08;8.90;99.90
20376;DHT22;10347;51.828;6.466;2023-04-25T02:15:33;8.90;99.90
20376;DHT22;10347;51.828;6.466;2023-04-25T02:17:59;8.90;99.90
20376;DHT22;10347;51.828;6.466;2023-04-25T02:20:26;8.80;99.90
20376;DHT22;10347;51.828;6.466;2023-04-25T02:22:52;8.80;99.90
20376;DHT22;10347;51.828;6.466;2023-04-25T02:25:18;8.90;99.90
20376;DHT22;10347;51.828;6.466;2023-04-25T02:27:45;8.90;99.90
20376;DHT22;10347;51.828;6.466;2023-04-25T02:30:11;8.90;99.90
20376;DHT22;10347;51.828;6.466;2023-04-25T02:32:37;8.90;99.90
20376;DHT22;10347;51.828;6.466;2023-04-25T02:35:03;8.90;99.90
20376;DHT22;10347;51.828;6.466;2023-04-25T02:37:30;8.90;99.90
20376;DHT22;10347;51.828;6.466;2023-04-25T02:39:56;8.90;99.90
20376;DHT22;10347;51.828;6.466;2023-04-25T02:42:21;8.80;99.90
20376;DHT22;10347;51.828;6.466;2023-04-25T02:44:47;8.80;99.90
20376;DHT22;10347;51.828;6.466;2023-04-25T02:47:13;8.80;99.90
20376;DHT22;10347;51.828;6.466;2023-04-25T02:49:38;8.80;99.90
20376;DHT22;10347;51.828;6.466;2023-04-25T02:52:04;8.80;99.90
20376;DHT22;10347;51.828;6.466;2023-04-25T02:54:30;8.80;99.90
20376;DHT22;10347;51.828;6.466;2023-04-25T02:56:55;8.90;99.90
20376;DHT22;10347;51.828;6.466;2023-04-25T02:59:21;8.90;99.90
20376;DHT22;10347;51.828;6.466;2023-04-25T03:01:46;8.90;99.90
20376;DHT22;10347;51.828;6.466;2023-04-25T03:04:12;8.90;99.90
20376;DHT22;10347;51.828;6.466;2023-04-25T03:06:37;8.90;99.90
20376;DHT22;10347;51.828;6.466;2023-04-25T03:09:03;9.00;99.90
20376;DHT22;10347;51.828;6.466;2023-04-25T03:11:29;8.90;99.90
20376;DHT22;10347;51.828;6.466;2023-04-25T03:13:55;8.90;99.90
20376;DHT22;10347;51.828;6.466;2023-04-25T03:16:21;8.90;99.90
20376;DHT22;10347;51.828;6.466;2023-04-25T03:18:47;8.90;99.90
20376;DHT22;10347;51.828;6.466;2023-04-25T03:21:12;8.90;99.90
20376;DHT22;10347;51.828;6.466;2023-04-25T03:23:38;8.90;99.90
20376;DHT22;10347;51.828;6.466;2023-04-25T03:26:03;8.80;99.90
20376;DHT22;10347;51.828;6.466;2023-04-25T03:28:29;8.80;99.90
20376;DHT22;10347;51.828;6.466;2023-04-25T03:30:54;8.80;99.90
20376;DHT22;10347;51.828;6.466;2023-04-25T03:33:20;8.70;99.90
20376;DHT22;10347;51.828;6.466;2023-04-25T03:35:46;8.70;99.90
20376;DHT22;10347;51.828;6.466;2023-04-25T03:38:11;8.70;99.90
20376;DHT22;10347;51.828;6.466;2023-04-25T03:40:37;8.60;99.90
20376;DHT22;10347;51.828;6.466;2023-04-25T03:43:02;8.50;99.90
20376;DHT22;10347;51.828;6.466;2023-04-25T03:45:28;8.50;99.90
20376;DHT22;10347;51.828;6.466;2023-04-25T03:47:53;8.50;99.90
20376;DHT22;10347;51.828;6.466;2023-04-25T03:50:19;8.40;99.90
20376;DHT22;10347;51.828;6.466;2023-04-25T03:52:45;8.30;99.90
20376;DHT22;10347;51.828;6.466;2023-04-25T03:55:11;8.30;99.90
20376;DHT22;10347;51.828;6.466;2023-04-25T03:57:36;8.40;99.90
20376;DHT22;10347;51.828;6.466;2023-04-25T04:00:02;8.40;99.90
20376;DHT22;10347;51.828;6.466;2023-04-25T04:02:29;8.40;99.90
20376;DHT22;10347;51.828;6.466;2023-04-25T04:04:54;8.30;99.90
20376;DHT22;10347;51.828;6.466;2023-04-25T04:07:21;8.30;99.90
20376;DHT22;10347;51.828;6.466;2023-04-25T04:09:47;8.30;99.90
20376;DHT22;10347;51.828;6.466;2023-04-25T04:12:13;8.20;99.90
20376;DHT22;10347;51.828;6.466;2023-04-25T04:14:38;8.20;99.90
20376;DHT22;10347;51.828;6.466;2023-04-25T04:17:04;8.20;99.90
20376;DHT22;10347;51.828;6.466;2023-04-25T04:19:29;8.20;99.90
20376;DHT22;10347;51.828;6.466;2023-04-25T04:21:55;8.20;99.90
20376;DHT22;10347;51.828;6.466;2023-04-25T04:24:20;8.20;99.90
20376;DHT22;10347;51.828;6.466;2023-04-25T04:26:46;8.20;99.90
20376;DHT22;10347;51.828;6.466;2023-04-25T04:29:11;8.20;99.90
20376;DHT22;10347;51.828;6.466;2023-04-25T04:31:47;8.20;99.90
20376;DHT22;10347;51.828;6.466;2023-04-25T04:34:12;8.10;99.90
20376;DHT22;10347;51.828;6.466;2023-04-25T04:36:38;8.10;99.90
20376;DHT22;10347;51.828;6.466;2023-04-25T04:39:05;8.00;99.90
20376;DHT22;10347;51.828;6.466;2023-04-25T04:41:31;8.00;99.90
20376;DHT22;10347;51.828;6.466;2023-04-25T04:43:57;8.10;99.90
20376;DHT22;10347;51.828;6.466;2023-04-25T04:46:23;8.10;99.90
20376;DHT22;10347;51.828;6.466;2023-04-25T04:48:50;8.10;99.90
20376;DHT22;10347;51.828;6.466;2023-04-25T04:51:15;8.10;99.90
20376;DHT22;10347;51.828;6.466;2023-04-25T04:53:41;8.00;99.90
20376;DHT22;10347;51.828;6.466;2023-04-25T04:56:06;8.10;99.90
20376;DHT22;10347;51.828;6.466;2023-04-25T04:58:32;8.10;99.90
20376;DHT22;10347;51.828;6.466;2023-04-25T05:00:57;8.10;99.90
20376;DHT22;10347;51.828;6.466;2023-04-25T05:03:23;8.10;99.90
20376;DHT22;10347;51.828;6.466;2023-04-25T05:05:48;8.10;99.90
20376;DHT22;10347;51.828;6.466;2023-04-25T05:08:14;8.10;99.90
20376;DHT22;10347;51.828;6.466;2023-04-25T05:10:40;8.10;99.90
20376;DHT22;10347;51.828;6.466;2023-04-25T05:13:05;8.10;99.90
20376;DHT22;10347;51.828;6.466;2023-04-25T05:15:31;8.10;99.90
20376;DHT22;10347;51.828;6.466;2023-04-25T05:17:56;8.10;99.90
20376;DHT22;10347;51.828;6.466;2023-04-25T05:20:22;8.10;99.90
20376;DHT22;10347;51.828;6.466;2023-04-25T05:22:48;8.20;99.90
20376;DHT22;10347;51.828;6.466;2023-04-25T05:25:13;8.30;99.90
20376;DHT22;10347;51.828;6.466;2023-04-25T05:27:39;8.30;99.90
20376;DHT22;10347;51.828;6.466;2023-04-25T05:30:05;8.30;99.90
20376;DHT22;10347;51.828;6.466;2023-04-25T05:32:31;8.30;99.90
20376;DHT22;10347;51.828;6.466;2023-04-25T05:34:56;8.30;99.90
20376;DHT22;10347;51.828;6.466;2023-04-25T05:37:22;8.20;99.90
20376;DHT22;10347;51.828;6.466;2023-04-25T05:39:47;8.20;99.90
20376;DHT22;10347;51.828;6.466;2023-04-25T05:42:13;8.10;99.90
20376;DHT22;10347;51.828;6.466;2023-04-25T05:44:39;8.10;99.90
20376;DHT22;10347;51.828;6.466;2023-04-25T05:47:04;8.00;99.90
20376;DHT22;10347;51.828;6.466;2023-04-25T05:49:30;8.00;99.90
20376;DHT22;10347;51.828;6.466;2023-04-25T05:51:56;8.00;99.90
20376;DHT22;10347;51.828;6.466;2023-04-25T05:54:21;8.00;99.90
20376;DHT22;10347;51.828;6.466;2023-04-25T05:56:47;8.00;99.90
20376;DHT22;10347;51.828;6.466;2023-04-25T05:59:12;8.00;99.90
20376;DHT22;10347;51.828;6.466;2023-04-25T06:01:38;8.00;99.90
20376;DHT22;10347;51.828;6.466;2023-04-25T06:04:03;8.00;99.90
20376;DHT22;10347;51.828;6.466;2023-04-25T06:06:29;8.10;99.90
20376;DHT22;10347;51.828;6.466;2023-04-25T06:08:55;8.10;99.90
20376;DHT22;10347;51.828;6.466;2023-04-25T06:11:21;8.10;99.90
20376;DHT22;10347;51.828;6.466;2023-04-25T06:13:46;8.20;99.90
20376;DHT22;10347;51.828;6.466;2023-04-25T06:16:12;8.20;99.90
20376;DHT22;10347;51.828;6.466;2023-04-25T06:18:37;8.30;99.90
20376;DHT22;10347;51.828;6.466;2023-04-25T06:21:03;8.30;99.90
20376;DHT22;10347;51.828;6.466;2023-04-25T06:23:29;8.30;99.90
20376;DHT22;10347;51.828;6.466;2023-04-25T06:25:54;8.30;99.90
20376;DHT22;10347;51.828;6.466;2023-04-25T06:28:20;8.30;99.90
20376;DHT22;10347;51.828;6.466;2023-04-25T06:30:47;8.30;99.90
20376;DHT22;10347;51.828;6.466;2023-04-25T06:33:12;8.40;99.90
20376;DHT22;10347;51.828;6.466;2023-04-25T06:35:38;8.30;99.90
20376;DHT22;10347;51.828;6.466;2023-04-25T06:38:03;8.30;99.90
20376;DHT22;10347;51.828;6.466;2023-04-25T06:40:29;8.30;99.90
20376;DHT22;10347;51.828;6.466;2023-04-25T06:42:55;8.30;99.90
20376;DHT22;10347;51.828;6.466;2023-04-25T06:45:20;8.30;99.90
20376;DHT22;10347;51.828;6.466;2023-04-25T06:47:46;8.30;99.90
20376;DHT22;10347;51.828;6.466;2023-04-25T06:50:11;8.20;99.90
20376;DHT22;10347;51.828;6.466;2023-04-25T06:52:37;8.30;99.90
20376;DHT22;10347;51.828;6.466;2023-04-25T06:55:02;8.20;99.90
20376;DHT22;10347;51.828;6.466;2023-04-25T06:57:29;8.20;99.90
20376;DHT22;10347;51.828;6.466;2023-04-25T06:59:54;8.30;99.90
20376;DHT22;10347;51.828;6.466;2023-04-25T07:02:20;8.30;99.90
20376;DHT22;10347;51.828;6.466;2023-04-25T07:04:47;8.40;99.90
20376;DHT22;10347;51.828;6.466;2023-04-25T07:07:12;8.40;99.90
20376;DHT22;10347;51.828;6.466;2023-04-25T07:09:38;8.50;99.90
20376;DHT22;10347;51.828;6.466;2023-04-25T07:12:04;8.50;99.90
20376;DHT22;10347;51.828;6.466;2023-04-25T07:14:29;8.60;99.90
20376;DHT22;10347;51.828;6.466;2023-04-25T07:16:55;8.60;99.90
20376;DHT22;10347;51.828;6.466;2023-04-25T07:19:22;8.60;99.90
20376;DHT22;10347;51.828;6.466;2023-04-25T07:21:49;8.70;99.90
20376;DHT22;10347;51.828;6.466;2023-04-25T07:24:15;8.60;99.90
20376;DHT22;10347;51.828;6.466;2023-04-25T07:26:40;8.60;99.90
20376;DHT22;10347;51.828;6.466;2023-04-25T07:29:06;8.60;99.90
20376;DHT22;10347;51.828;6.466;2023-04-25T07:31:31;8.70;99.90
20376;DHT22;10347;51.828;6.466;2023-04-25T07:33:57;8.70;99.90
20376;DHT22;10347;51.828;6.466;2023-04-25T07:36:22;8.70;99.90
20376;DHT22;10347;51.828;6.466;2023-04-25T07:38:48;8.80;99.90
20376;DHT22;10347;51.828;6.466;2023-04-25T07:41:13;8.80;99.90
20376;DHT22;10347;51.828;6.466;2023-04-25T07:43:39;8.80;99.90
20376;DHT22;10347;51.828;6.466;2023-04-25T07:46:04;8.90;99.90
20376;DHT22;10347;51.828;6.466;2023-04-25T07:48:30;8.90;99.90
20376;DHT22;10347;51.828;6.466;2023-04-25T07:50:55;8.90;99.90
20376;DHT22;10347;51.828;6.466;2023-04-25T07:53:21;9.00;99.90
20376;DHT22;10347;51.828;6.466;2023-04-25T07:55:47;9.00;99.90
20376;DHT22;10347;51.828;6.466;2023-04-25T07:58:12;8.90;99.90
20376;DHT22;10347;51.828;6.466;2023-04-25T08:00:39;8.90;99.90
20376;DHT22;10347;51.828;6.466;2023-04-25T08:03:04;9.00;99.90
20376;DHT22;10347;51.828;6.466;2023-04-25T08:05:30;9.00;99.90
20376;DHT22;10347;51.828;6.466;2023-04-25T08:07:55;9.00;99.90
20376;DHT22;10347;51.828;6.466;2023-04-25T08:10:22;9.00;99.90
20376;DHT22;10347;51.828;6.466;2023-04-25T08:12:48;9.10;99.90
20376;DHT22;10347;51.828;6.466;2023-04-25T08:15:14;9.20;99.90
20376;DHT22;10347;51.828;6.466;2023-04-25T08:17:40;9.20;99.90
20376;DHT22;10347;51.828;6.466;2023-04-25T08:20:06;9.20;99.90
20376;DHT22;10347;51.828;6.466;2023-04-25T08:22:32;9.30;99.90
20376;DHT22;10347;51.828;6.466;2023-04-25T08:24:57;9.40;99.90
20376;DHT22;10347;51.828;6.466;2023-04-25T08:27:23;9.40;99.90
20376;DHT22;10347;51.828;6.466;2023-04-25T08:29:49;9.50;99.90
20376;DHT22;10347;51.828;6.466;2023-04-25T08:32:15;9.50;99.90
20376;DHT22;10347;51.828;6.466;2023-04-25T08:34:40;9.50;99.90
20376;DHT22;10347;51.828;6.466;2023-04-25T08:37:08;9.50;99.90
20376;DHT22;10347;51.828;6.466;2023-04-25T08:39:35;9.60;99.90
20376;DHT22;10347;51.828;6.466;2023-04-25T08:42:02;9.70;99.90
20376;DHT22;10347;51.828;6.466;2023-04-25T08:44:33;9.60;99.90
20376;DHT22;10347;51.828;6.466;2023-04-25T08:46:58;9.70;99.90
20376;DHT22;10347;51.828;6.466;2023-04-25T08:49:25;9.70;99.90
20376;DHT22;10347;51.828;6.466;2023-04-25T08:51:52;9.80;99.90
20376;DHT22;10347;51.828;6.466;2023-04-25T08:54:20;9.80;99.90
20376;DHT22;10347;51.828;6.466;2023-04-25T08:56:47;9.80;99.90
20376;DHT22;10347;51.828;6.466;2023-04-25T08:59:13;9.80;99.90
20376;DHT22;10347;51.828;6.466;2023-04-25T09:01:39;9.90;99.90
20376;DHT22;10347;51.828;6.466;2023-04-25T09:04:04;10.00;99.90
20376;DHT22;10347;51.828;6.466;2023-04-25T09:06:30;10.00;99.90
20376;DHT22;10347;51.828;6.466;2023-04-25T09:09:04;10.10;99.90
20376;DHT22;10347;51.828;6.466;2023-04-25T09:11:31;10.10;99.90
20376;DHT22;10347;51.828;6.466;2023-04-25T09:14:16;10.10;99.90
20376;DHT22;10347;51.828;6.466;2023-04-25T09:19:23;10.20;99.90
20376;DHT22;10347;51.828;6.466;2023-04-25T09:21:50;10.00;99.90
20376;DHT22;10347;51.828;6.466;2023-04-25T09:24:19;9.90;99.90
20376;DHT22;10347;51.828;6.466;2023-04-25T09:26:45;9.70;99.90
20376;DHT22;10347;51.828;6.466;2023-04-25T09:29:10;9.60;99.90
20376;DHT22;10347;51.828;6.466;2023-04-25T09:31:36;9.50;99.90
20376;DHT22;10347;51.828;6.466;2023-04-25T09:34:02;9.50;99.90
20376;DHT22;10347;51.828;6.466;2023-04-25T09:36:29;9.50;99.90
20376;DHT22;10347;51.828;6.466;2023-04-25T09:38:55;9.50;99.90
20376;DHT22;10347;51.828;6.466;2023-04-25T09:41:24;9.50;99.90
20376;DHT22;10347;51.828;6.466;2023-04-25T09:43:50;9.40;99.90
20376;DHT22;10347;51.828;6.466;2023-04-25T09:46:16;9.30;99.90
20376;DHT22;10347;51.828;6.466;2023-04-25T09:48:48;9.30;99.90
20376;DHT22;10347;51.828;6.466;2023-04-25T09:51:14;9.30;99.90
20376;DHT22;10347;51.828;6.466;2023-04-25T09:53:42;9.40;99.90
20376;DHT22;10347;51.828;6.466;2023-04-25T09:56:10;9.40;99.90
20376;DHT22;10347;51.828;6.466;2023-04-25T09:58:38;9.40;99.90
20376;DHT22;10347;51.828;6.466;2023-04-25T10:01:07;9.50;99.90
20376;DHT22;10347;51.828;6.466;2023-04-25T10:03:43;9.60;99.90
20376;DHT22;10347;51.828;6.466;2023-04-25T10:06:18;9.70;99.90
20376;DHT22;10347;51.828;6.466;2023-04-25T10:08:44;9.60;99.90
20376;DHT22;10347;51.828;6.466;2023-04-25T10:11:10;9.70;99.90
20376;DHT22;10347;51.828;6.466;2023-04-25T10:13:40;9.80;99.90
20376;DHT22;10347;51.828;6.466;2023-04-25T10:16:05;9.80;99.90
20376;DHT22;10347;51.828;6.466;2023-04-25T10:18:32;9.80;99.90
20376;DHT22;10347;51.828;6.466;2023-04-25T10:21:02;9.90;99.90
20376;DHT22;10347;51.828;6.466;2023-04-25T10:23:29;10.00;99.90
20376;DHT22;10347;51.828;6.466;2023-04-25T10:25:55;10.10;99.90
20376;DHT22;10347;51.828;6.466;2023-04-25T10:28:21;10.20;99.90
20376;DHT22;10347;51.828;6.466;2023-04-25T10:31:19;10.30;99.90
20376;DHT22;10347;51.828;6.466;2023-04-25T10:33:45;10.40;99.90
20376;DHT22;10347;51.828;6.466;2023-04-25T10:36:17;10.50;99.90
20376;DHT22;10347;51.828;6.466;2023-04-25T10:38:43;10.50;99.90
20376;DHT22;10347;51.828;6.466;2023-04-25T10:41:10;10.60;99.90
20376;DHT22;10347;51.828;6.466;2023-04-25T10:43:44;10.70;99.90
20376;DHT22;10347;51.828;6.466;2023-04-25T10:46:22;10.80;99.90
20376;DHT22;10347;51.828;6.466;2023-04-25T10:48:51;10.90;99.90
20376;DHT22;10347;51.828;6.466;2023-04-25T10:51:20;10.80;99.90
20376;DHT22;10347;51.828;6.466;2023-04-25T10:53:56;10.90;99.90
20376;DHT22;10347;51.828;6.466;2023-04-25T10:56:22;10.90;99.90
20376;DHT22;10347;51.828;6.466;2023-04-25T10:58:49;10.90;99.90
20376;DHT22;10347;51.828;6.466;2023-04-25T11:01:20;10.90;99.90
20376;DHT22;10347;51.828;6.466;2023-04-25T11:03:46;10.80;99.90
20376;DHT22;10347;51.828;6.466;2023-04-25T11:06:22;10.80;99.90
20376;DHT22;10347;51.828;6.466;2023-04-25T11:08:52;10.80;99.90
20376;DHT22;10347;51.828;6.466;2023-04-25T11:11:18;10.70;99.90
20376;DHT22;10347;51.828;6.466;2023-04-25T11:13:44;10.70;99.90
20376;DHT22;10347;51.828;6.466;2023-04-25T11:16:12;10.70;99.90
20376;DHT22;10347;51.828;6.466;2023-04-25T11:18:40;10.70;99.90
20376;DHT22;10347;51.828;6.466;2023-04-25T11:21:05;10.70;99.90
20376;DHT22;10347;51.828;6.466;2023-04-25T11:23:31;10.80;99.90
20376;DHT22;10347;51.828;6.466;2023-04-25T11:25:57;10.80;99.90
20376;DHT22;10347;51.828;6.466;2023-04-25T11:28:23;10.80;99.90
20376;DHT22;10347;51.828;6.466;2023-04-25T11:30:51;10.90;99.90
20376;DHT22;10347;51.828;6.466;2023-04-25T11:33:17;10.90;99.90
20376;DHT22;10347;51.828;6.466;2023-04-25T11:35:43;10.80;99.90
20376;DHT22;10347;51.828;6.466;2023-04-25T11:38:09;10.90;99.90
20376;DHT22;10347;51.828;6.466;2023-04-25T11:40:35;10.90;99.90
20376;DHT22;10347;51.828;6.466;2023-04-25T11:43:01;10.90;99.90
20376;DHT22;10347;51.828;6.466;2023-04-25T11:45:27;10.80;99.90
20376;DHT22;10347;51.828;6.466;2023-04-25T11:47:54;10.70;99.90
20376;DHT22;10347;51.828;6.466;2023-04-25T11:50:20;10.60;99.90
20376;DHT22;10347;51.828;6.466;2023-04-25T11:52:46;10.60;99.90
20376;DHT22;10347;51.828;6.466;2023-04-25T11:57:40;10.60;99.90
20376;DHT22;10347;51.828;6.466;2023-04-25T12:00:14;10.70;99.90
20376;DHT22;10347;51.828;6.466;2023-04-25T12:02:55;10.80;99.90
20376;DHT22;10347;51.828;6.466;2023-04-25T12:05:24;10.80;99.90
20376;DHT22;10347;51.828;6.466;2023-04-25T12:07:50;10.80;99.90
20376;DHT22;10347;51.828;6.466;2023-04-25T12:10:17;10.80;99.90
20376;DHT22;10347;51.828;6.466;2023-04-25T12:12:45;10.80;99.90
20376;DHT22;10347;51.828;6.466;2023-04-25T12:15:18;10.90;99.90
20376;DHT22;10347;51.828;6.466;2023-04-25T12:17:48;10.90;99.90
20376;DHT22;10347;51.828;6.466;2023-04-25T12:20:15;10.90;99.90
20376;DHT22;10347;51.828;6.466;2023-04-25T12:22:43;11.00;99.90
20376;DHT22;10347;51.828;6.466;2023-04-25T12:25:11;11.10;99.90
20376;DHT22;10347;51.828;6.466;2023-04-25T12:27:38;11.20;99.90
20376;DHT22;10347;51.828;6.466;2023-04-25T12:30:05;11.10;99.90
20376;DHT22;10347;51.828;6.466;2023-04-25T12:32:32;11.20;99.90
20376;DHT22;10347;51.828;6.466;2023-04-25T12:34:57;11.20;99.90
20376;DHT22;10347;51.828;6.466;2023-04-25T12:37:23;11.30;99.90
20376;DHT22;10347;51.828;6.466;2023-04-25T12:39:49;11.40;99.90
20376;DHT22;10347;51.828;6.466;2023-04-25T12:42:14;11.50;99.90
20376;DHT22;10347;51.828;6.466;2023-04-25T12:44:40;11.60;99.90
20376;DHT22;10347;51.828;6.466;2023-04-25T12:47:06;11.70;99.90
20376;DHT22;10347;51.828;6.466;2023-04-25T12:49:32;11.70;99.90
20376;DHT22;10347;51.828;6.466;2023-04-25T12:51:57;11.80;99.90
20376;DHT22;10347;51.828;6.466;2023-04-25T12:54:23;11.90;99.90
20376;DHT22;10347;51.828;6.466;2023-04-25T12:56:49;12.00;99.90
20376;DHT22;10347;51.828;6.466;2023-04-25T12:59:15;12.10;99.90
20376;DHT22;10347;51.828;6.466;2023-04-25T13:01:41;12.10;99.90
20376;DHT22;10347;51.828;6.466;2023-04-25T13:04:06;12.10;99.90
20376;DHT22;10347;51.828;6.466;2023-04-25T13:06:32;12.10;99.90
20376;DHT22;10347;51.828;6.466;2023-04-25T13:08:57;12.10;99.90
20376;DHT22;10347;51.828;6.466;2023-04-25T13:11:23;12.10;99.90
20376;DHT22;10347;51.828;6.466;2023-04-25T13:13:48;12.10;99.90
20376;DHT22;10347;51.828;6.466;2023-04-25T13:16:14;12.10;99.90
20376;DHT22;10347;51.828;6.466;2023-04-25T13:18:40;12.10;99.90
20376;DHT22;10347;51.828;6.466;2023-04-25T13:21:06;12.00;99.90
20376;DHT22;10347;51.828;6.466;2023-04-25T13:23:32;11.90;99.90
20376;DHT22;10347;51.828;6.466;2023-04-25T13:25:57;11.80;99.90
20376;DHT22;10347;51.828;6.466;2023-04-25T13:28:23;11.80;99.90
20376;DHT22;10347;51.828;6.466;2023-04-25T13:30:49;11.70;99.90
20376;DHT22;10347;51.828;6.466;2023-04-25T13:33:15;11.70;99.90
20376;DHT22;10347;51.828;6.466;2023-04-25T13:35:41;11.60;99.90
20376;DHT22;10347;51.828;6.466;2023-04-25T13:38:07;11.60;99.90
20376;DHT22;10347;51.828;6.466;2023-04-25T13:40:34;11.60;99.90
20376;DHT22;10347;51.828;6.466;2023-04-25T13:43:00;11.60;99.90
20376;DHT22;10347;51.828;6.466;2023-04-25T13:45:26;11.60;99.90
20376;DHT22;10347;51.828;6.466;2023-04-25T13:47:52;11.60;99.90
20376;DHT22;10347;51.828;6.466;2023-04-25T13:50:17;11.60;99.90
20376;DHT22;10347;51.828;6.466;2023-04-25T13:52:43;11.60;99.90
20376;DHT22;10347;51.828;6.466;2023-04-25T13:55:09;11.70;99.90
20376;DHT22;10347;51.828;6.466;2023-04-25T13:57:35;11.70;99.90
20376;DHT22;10347;51.828;6.466;2023-04-25T14:00:01;11.70;99.90
20376;DHT22;10347;51.828;6.466;2023-04-25T14:02:36;11.60;99.90
20376;DHT22;10347;51.828;6.466;2023-04-25T14:05:03;11.70;99.90
20376;DHT22;10347;51.828;6.466;2023-04-25T14:07:29;11.70;99.90
20376;DHT22;10347;51.828;6.466;2023-04-25T14:09:56;11.90;99.90
20376;DHT22;10347;51.828;6.466;2023-04-25T14:12:22;11.90;99.90
20376;DHT22;10347;51.828;6.466;2023-04-25T14:14:48;11.90;99.90
20376;DHT22;10347;51.828;6.466;2023-04-25T14:17:14;11.90;99.90
20376;DHT22;10347;51.828;6.466;2023-04-25T14:19:39;11.80;99.90
20376;DHT22;10347;51.828;6.466;2023-04-25T14:22:09;11.80;99.90
20376;DHT22;10347;51.828;6.466;2023-04-25T14:24:34;11.80;99.90
20376;DHT22;10347;51.828;6.466;2023-04-25T14:27:00;11.90;99.90
20376;DHT22;10347;51.828;6.466;2023-04-25T14:29:26;11.90;99.90
20376;DHT22;10347;51.828;6.466;2023-04-25T14:31:52;11.90;99.90
20376;DHT22;10347;51.828;6.466;2023-04-25T14:34:18;11.90;99.90
20376;DHT22;10347;51.828;6.466;2023-04-25T14:36:44;11.90;99.90
20376;DHT22;10347;51.828;6.466;2023-04-25T14:39:10;11.90;99.90
20376;DHT22;10347;51.828;6.466;2023-04-25T14:41:35;11.90;99.90
20376;DHT22;10347;51.828;6.466;2023-04-25T14:44:01;12.00;99.90
20376;DHT22;10347;51.828;6.466;2023-04-25T14:46:26;12.00;99.90
20376;DHT22;10347;51.828;6.466;2023-04-25T14:48:52;12.20;99.90
20376;DHT22;10347;51.828;6.466;2023-04-25T14:51:18;12.20;99.90
20376;DHT22;10347;51.828;6.466;2023-04-25T14:53:44;12.20;99.90
20376;DHT22;10347;51.828;6.466;2023-04-25T14:56:09;12.30;99.90
20376;DHT22;10347;51.828;6.466;2023-04-25T14:58:35;12.30;99.90
20376;DHT22;10347;51.828;6.466;2023-04-25T15:01:00;12.30;99.90
20376;DHT22;10347;51.828;6.466;2023-04-25T15:03:26;12.20;99.90
20376;DHT22;10347;51.828;6.466;2023-04-25T15:05:54;12.20;99.90
20376;DHT22;10347;51.828;6.466;2023-04-25T15:08:20;12.20;99.90
20376;DHT22;10347;51.828;6.466;2023-04-25T15:10:46;12.20;99.90
20376;DHT22;10347;51.828;6.466;2023-04-25T15:13:11;12.20;99.90
20376;DHT22;10347;51.828;6.466;2023-04-25T15:15:37;12.20;99.90
20376;DHT22;10347;51.828;6.466;2023-04-25T15:18:03;12.20;99.90
20376;DHT22;10347;51.828;6.466;2023-04-25T15:20:28;12.30;99.90
20376;DHT22;10347;51.828;6.466;2023-04-25T15:22:54;12.30;99.90
20376;DHT22;10347;51.828;6.466;2023-04-25T15:25:20;12.30;99.90
20376;DHT22;10347;51.828;6.466;2023-04-25T15:27:46;12.30;99.90
20376;DHT22;10347;51.828;6.466;2023-04-25T15:30:15;12.30;99.90
20376;DHT22;10347;51.828;6.466;2023-04-25T15:32:42;12.30;99.90
20376;DHT22;10347;51.828;6.466;2023-04-25T15:35:08;12.30;99.90
20376;DHT22;10347;51.828;6.466;2023-04-25T15:37:34;12.30;99.90
20376;DHT22;10347;51.828;6.466;2023-04-25T15:40:08;12.30;99.90